createdAt,value
2023-01-11T00:00:53.072Z,48.3
2023-01-11T00:01:54.391Z,48.3
2023-01-11T00:02:55.071Z,48.2
2023-01-11T00:03:56.218Z,48.3
2023-01-11T00:04:57.083Z,48.2
2023-01-11T00:05:58.011Z,47.9
2023-01-11T00:06:59.134Z,47.8
2023-01-11T00:08:00.016Z,47.6
2023-01-11T00:09:00.993Z,47.7
2023-01-11T00:10:02.254Z,47.5
2023-01-11T00:11:03.183Z,47.5
2023-01-11T00:12:04.085Z,46.9
2023-01-11T00:13:05.264Z,46.8
2023-01-11T00:14:06.052Z,47.5
2023-01-11T00:15:07.052Z,47.7
2023-01-11T00:16:08.024Z,47.8
2023-01-11T00:17:09.034Z,47.6
2023-01-11T00:18:09.994Z,47.7
2023-01-11T00:19:11.078Z,47.6
2023-01-11T00:20:12.238Z,47
2023-01-11T00:21:12.970Z,47.3
2023-01-11T00:22:14.074Z,47.2
2023-01-11T00:23:15.030Z,47.2
2023-01-11T00:24:16.049Z,47.1
2023-01-11T00:25:17.193Z,47.5
2023-01-11T00:26:18.250Z,47.5
2023-01-11T00:27:19.165Z,47.5
2023-01-11T00:28:20.193Z,47.3
2023-01-11T00:29:21.244Z,47.4
2023-01-11T00:30:22.196Z,47.1
2023-01-11T00:31:23.300Z,47.1
2023-01-11T00:32:24.033Z,47
2023-01-11T00:33:25.111Z,46.9
2023-01-11T00:34:26.015Z,46.9
2023-01-11T00:35:27.075Z,46.1
2023-01-11T00:36:28.018Z,47
2023-01-11T00:37:29.031Z,47.3
2023-01-11T00:38:30.039Z,47.3
2023-01-11T00:39:31.033Z,47.1
2023-01-11T00:40:32.017Z,46.6
2023-01-11T00:41:33.003Z,46.7
2023-01-11T00:42:33.991Z,46.5
2023-01-11T00:43:35.011Z,46.4
2023-01-11T00:44:35.990Z,46.5
2023-01-11T00:45:37.004Z,46.4
2023-01-11T00:46:38.040Z,46.4
2023-01-11T00:47:39.057Z,46.9
2023-01-11T00:48:40.091Z,47.1
2023-01-11T00:49:41.054Z,46.9
2023-01-11T00:50:42.010Z,46.7
2023-01-11T00:51:43.011Z,46.7
2023-01-11T00:52:44.035Z,46.6
2023-01-11T00:53:45.040Z,46.6
2023-01-11T00:54:46.057Z,46.5
2023-01-11T00:55:47.252Z,46.2
2023-01-11T00:56:48.190Z,46.3
2023-01-11T00:57:49.037Z,46.3
2023-01-11T00:58:50.013Z,46
2023-01-11T00:59:51.413Z,45.8
2023-01-11T01:00:52.191Z,45.9
2023-01-11T01:01:53.209Z,45.7
2023-01-11T01:02:54.083Z,45.5
2023-01-11T01:03:55.022Z,45.6
2023-01-11T01:04:56.044Z,45.6
2023-01-11T01:05:57.071Z,45.5
2023-01-11T01:06:58.111Z,45.5
2023-01-11T01:07:59.131Z,45.5
2023-01-11T01:09:00.098Z,45.4
2023-01-11T01:10:01.080Z,45.4
2023-01-11T01:11:02.052Z,45.3
2023-01-11T01:12:03.053Z,45.3
2023-01-11T01:13:04.072Z,45.3
2023-01-11T01:14:05.030Z,45.3
2023-01-11T01:15:06.022Z,45.3
2023-01-11T01:16:07.125Z,45.4
2023-01-11T01:17:08.102Z,45.6
2023-01-11T01:18:09.098Z,45.5
2023-01-11T01:19:10.031Z,45.5
2023-01-11T01:20:11.039Z,45.6
2023-01-11T01:21:12.030Z,45.1
2023-01-11T01:22:13.006Z,45
2023-01-11T01:23:14.012Z,44.9
2023-01-11T01:24:15.032Z,45.2
2023-01-11T01:25:16.121Z,45.6
2023-01-11T01:26:17.139Z,45.7
2023-01-11T01:27:18.273Z,45.9
2023-01-11T01:28:19.272Z,45.5
2023-01-11T01:29:20.211Z,45.5
2023-01-11T01:30:21.296Z,45.2
2023-01-11T01:31:22.323Z,45.7
2023-01-11T01:32:23.170Z,45.7
2023-01-11T01:33:24.231Z,45.5
2023-01-11T01:34:25.250Z,45.2
2023-01-11T01:35:26.077Z,44.7
2023-01-11T01:36:27.127Z,44.5
2023-01-11T01:37:28.131Z,44.5
2023-01-11T01:38:29.063Z,44.6
2023-01-11T01:39:30.256Z,44.7
2023-01-11T01:40:34.410Z,44.6
2023-01-11T01:41:35.292Z,44.3
2023-01-11T01:42:36.291Z,44.2
2023-01-11T01:43:37.270Z,44.1
2023-01-11T01:44:38.094Z,44
2023-01-11T01:45:39.013Z,43.6
2023-01-11T01:46:40.078Z,43.6
2023-01-11T01:47:41.157Z,43.7
2023-01-11T01:48:42.169Z,43.6
2023-01-11T01:49:43.050Z,43.6
2023-01-11T01:50:44.080Z,43.5
2023-01-11T01:51:45.131Z,43.6
2023-01-11T01:52:46.060Z,44.1
2023-01-11T01:53:47.190Z,44.1
2023-01-11T01:54:48.214Z,44.2
2023-01-11T01:55:49.250Z,44.6
2023-01-11T01:56:50.239Z,44.8
2023-01-11T01:57:51.272Z,44.8
2023-01-11T01:58:52.055Z,44.7
2023-01-11T01:59:53.073Z,44.8
2023-01-11T02:00:54.207Z,44.5
2023-01-11T02:01:55.189Z,44.5
2023-01-11T02:02:56.245Z,44.3
2023-01-11T02:07:10.355Z,44.3
2023-01-11T02:08:11.356Z,44.2
2023-01-11T02:09:12.156Z,44
2023-01-11T02:10:13.078Z,43.8
2023-01-11T02:11:17.084Z,43.7
2023-01-11T02:12:18.281Z,43.9
2023-01-11T02:13:19.260Z,43.7
2023-01-11T02:14:20.517Z,43.6
2023-01-11T02:15:22.273Z,43.8
2023-01-11T02:16:23.215Z,43.9
2023-01-11T02:17:24.239Z,44.1
2023-01-11T02:18:25.200Z,44.3
2023-01-11T02:19:26.041Z,44.2
2023-01-11T02:20:27.104Z,44.4
2023-01-11T02:21:28.058Z,44.5
2023-01-11T02:22:29.065Z,44.5
2023-01-11T02:23:30.139Z,44.4
2023-01-11T02:24:31.061Z,44.2
2023-01-11T02:25:32.184Z,43.9
2023-01-11T02:26:33.260Z,43.8
2023-01-11T02:27:34.245Z,43.7
2023-01-11T02:28:35.421Z,43.7
2023-01-11T02:29:36.282Z,43.8
2023-01-11T02:30:37.200Z,43.8
2023-01-11T02:31:38.271Z,43.4
2023-01-11T02:32:39.083Z,43.8
2023-01-11T02:33:40.139Z,43.9
2023-01-11T02:34:41.100Z,44.1
2023-01-11T02:35:42.100Z,44.1
2023-01-11T02:36:43.141Z,44.4
2023-01-11T02:37:44.120Z,44.7
2023-01-11T02:38:45.143Z,44.9
2023-01-11T02:39:46.155Z,45.1
2023-01-11T02:40:47.099Z,45.2
2023-01-11T02:41:48.662Z,45.5
2023-01-11T02:42:50.280Z,45.6
2023-01-11T02:43:51.241Z,45.9
2023-01-11T02:44:52.279Z,46.2
2023-01-11T02:45:53.260Z,46.7
2023-01-11T02:46:54.276Z,46.8
2023-01-11T02:47:55.230Z,46.8
2023-01-11T02:48:56.060Z,46.7
2023-01-11T02:49:57.072Z,46.5
2023-01-11T02:50:58.239Z,46.4
2023-01-11T02:51:59.180Z,46.4
2023-01-11T02:53:00.132Z,46.5
2023-01-11T02:54:01.084Z,46.4
2023-01-11T02:55:02.160Z,46.2
2023-01-11T02:56:03.247Z,46.3
2023-01-11T02:57:04.298Z,46
2023-01-11T02:58:05.202Z,46.3
2023-01-11T02:59:06.200Z,46.3
2023-01-11T03:00:07.080Z,45.9
2023-01-11T03:01:08.125Z,46.3
2023-01-11T03:02:09.140Z,46.4
2023-01-11T03:03:10.808Z,46.4
2023-01-11T03:04:12.083Z,46.4
2023-01-11T03:05:12.988Z,46.5
2023-01-11T03:06:14.044Z,46.7
2023-01-11T03:07:15.083Z,46.8
2023-01-11T03:08:16.187Z,46.7
2023-01-11T03:09:17.109Z,47.2
2023-01-11T03:10:18.193Z,47.3
2023-01-11T03:11:19.268Z,47.6
2023-01-11T03:12:20.153Z,47.8
2023-01-11T03:13:21.207Z,47.7
2023-01-11T03:14:22.259Z,47.5
2023-01-11T03:15:23.233Z,47.3
2023-01-11T03:16:24.222Z,47.4
2023-01-11T03:17:25.164Z,47.5
2023-01-11T03:18:26.361Z,47.5
2023-01-11T03:19:27.101Z,47.5
2023-01-11T03:20:28.206Z,47.6
2023-01-11T03:21:29.120Z,47.5
2023-01-11T03:22:30.179Z,47.5
2023-01-11T03:23:31.218Z,47.6
2023-01-11T03:24:32.152Z,47.6
2023-01-11T03:25:33.161Z,47.6
2023-01-11T03:26:34.300Z,47.6
2023-01-11T03:27:35.246Z,47.5
2023-01-11T03:28:36.306Z,47.4
2023-01-11T03:29:37.107Z,47.2
2023-01-11T03:30:38.087Z,47
2023-01-11T03:31:39.170Z,47.2
2023-01-11T03:32:40.126Z,47.2
2023-01-11T03:33:41.121Z,47.5
2023-01-11T03:34:42.160Z,47.5
2023-01-11T03:35:43.131Z,48.2
2023-01-11T03:36:44.167Z,48.5
2023-01-11T03:37:45.289Z,48.6
2023-01-11T03:38:46.105Z,48.5
2023-01-11T03:39:47.144Z,48.7
2023-01-11T03:40:48.160Z,48.9
2023-01-11T03:41:49.330Z,49.1
2023-01-11T03:42:50.283Z,49.3
2023-01-11T03:43:51.304Z,49.5
2023-01-11T03:44:52.148Z,49.7
2023-01-11T03:45:53.139Z,49.9
2023-01-11T03:46:54.072Z,49.9
2023-01-11T03:47:55.139Z,50.2
2023-01-11T03:48:56.066Z,50.3
2023-01-11T03:49:57.127Z,50.3
2023-01-11T03:50:58.120Z,50.5
2023-01-11T03:51:59.118Z,50.7
2023-01-11T03:53:00.140Z,50.8
2023-01-11T03:54:01.155Z,50.8
2023-01-11T03:55:02.183Z,50.7
2023-01-11T03:56:03.140Z,51
2023-01-11T03:57:04.259Z,51.6
2023-01-11T03:58:05.166Z,51.9
2023-01-11T03:59:06.265Z,51.6
2023-01-11T04:00:07.106Z,51.5
2023-01-11T04:01:08.195Z,51.5
2023-01-11T04:02:09.080Z,51.7
2023-01-11T04:03:10.101Z,51.8
2023-01-11T04:04:11.175Z,52.3
2023-01-11T04:05:12.101Z,52.4
2023-01-11T04:06:13.140Z,52.4
2023-01-11T04:07:14.186Z,52.5
2023-01-11T04:08:15.145Z,52.4
2023-01-11T04:09:16.123Z,52.2
2023-01-11T04:10:17.101Z,52.2
2023-01-11T04:11:18.122Z,51.5
2023-01-11T04:12:19.240Z,52
2023-01-11T04:13:20.199Z,52.2
2023-01-11T04:14:21.281Z,52.4
2023-01-11T04:15:22.292Z,52.2
2023-01-11T04:16:23.340Z,52.3
2023-01-11T04:17:24.211Z,52.2
2023-01-11T04:18:25.401Z,52.2
2023-01-11T04:19:26.258Z,52
2023-01-11T04:20:27.140Z,52
2023-01-11T04:21:28.146Z,52.4
2023-01-11T04:22:29.138Z,52.2
2023-01-11T04:23:30.135Z,52.2
2023-01-11T04:24:31.106Z,52.3
2023-01-11T04:25:32.198Z,52.2
2023-01-11T04:26:33.216Z,52.2
2023-01-11T04:27:34.240Z,52.3
2023-01-11T04:28:35.238Z,52.2
2023-01-11T04:29:36.319Z,52.2
2023-01-11T04:30:37.222Z,52.1
2023-01-11T04:31:38.394Z,51.8
2023-01-11T04:32:39.281Z,51.8
2023-01-11T04:33:40.340Z,51.8
2023-01-11T04:34:41.253Z,51.9
2023-01-11T04:35:42.345Z,52
2023-01-11T04:36:43.380Z,52.3
2023-01-11T04:37:44.132Z,52.3
2023-01-11T04:38:45.220Z,52.2
2023-01-11T04:39:46.167Z,52.1
2023-01-11T04:40:47.140Z,52.2
2023-01-11T04:41:48.220Z,52.2
2023-01-11T04:42:49.365Z,52.4
2023-01-11T04:43:50.251Z,52.6
2023-01-11T04:44:51.300Z,51.9
2023-01-11T04:45:52.369Z,51.8
2023-01-11T04:46:53.320Z,52.5
2023-01-11T04:47:54.321Z,52.6
2023-01-11T04:48:55.194Z,52.6
2023-01-11T04:49:56.085Z,52.6
2023-01-11T04:50:57.182Z,52.6
2023-01-11T04:51:58.162Z,52.4
2023-01-11T04:52:59.124Z,52.3
2023-01-11T04:54:00.204Z,52.1
2023-01-11T04:55:01.195Z,51.9
2023-01-11T04:56:02.180Z,51.5
2023-01-11T04:57:03.140Z,51.6
2023-01-11T04:58:04.272Z,51.7
2023-01-11T04:59:05.139Z,51.6
2023-01-11T05:00:06.306Z,51.5
2023-01-11T05:01:07.264Z,51.6
2023-01-11T05:02:08.261Z,51.6
2023-01-11T05:03:09.318Z,51.5
2023-01-11T05:04:12.648Z,51.4
2023-01-11T05:05:11.299Z,51.1
2023-01-11T05:06:12.160Z,50.7
2023-01-11T05:07:13.251Z,50.9
2023-01-11T05:08:14.161Z,51.3
2023-01-11T05:09:15.160Z,51.3
2023-01-11T05:10:16.224Z,50.4
2023-01-11T05:11:17.157Z,50.9
2023-01-11T05:12:18.180Z,50.7
2023-01-11T05:13:19.380Z,50.6
2023-01-11T05:14:20.279Z,50.7
2023-01-11T05:15:21.359Z,50.9
2023-01-11T05:16:22.400Z,50.7
2023-01-11T05:17:23.299Z,50.8
2023-01-11T05:18:24.319Z,50.9
2023-01-11T05:19:25.320Z,50.8
2023-01-11T05:20:26.461Z,50.7
2023-01-11T05:21:27.348Z,50.8
2023-01-11T05:22:28.300Z,50.7
2023-01-11T05:23:29.143Z,50.6
2023-01-11T05:24:30.160Z,50.5
2023-01-11T05:25:31.224Z,50.4
2023-01-11T05:26:34.491Z,50.4
2023-01-11T05:27:33.117Z,50.3
2023-01-11T05:28:34.299Z,50.1
2023-01-11T05:29:35.323Z,50.1
2023-01-11T05:30:36.325Z,50
2023-01-11T05:31:37.431Z,50
2023-01-11T05:32:38.239Z,49.9
2023-01-11T05:33:39.258Z,49.8
2023-01-11T05:34:40.185Z,49.7
2023-01-11T05:35:41.240Z,49.4
2023-01-11T05:36:42.159Z,49.3
2023-01-11T05:37:43.257Z,49.2
2023-01-11T05:38:44.140Z,49.2
2023-01-11T05:39:45.140Z,49.1
2023-01-11T05:40:46.389Z,49.2
2023-01-11T05:41:47.159Z,49.2
2023-01-11T05:42:48.199Z,49.3
2023-01-11T05:43:49.399Z,49.4
2023-01-11T05:44:50.161Z,49.5
2023-01-11T05:45:51.175Z,49.6
2023-01-11T05:46:52.159Z,49.6
2023-01-11T05:47:53.246Z,49.4
2023-01-11T05:48:54.120Z,49.3
2023-01-11T05:49:55.170Z,49.2
2023-01-11T05:50:56.125Z,49
2023-01-11T05:51:57.244Z,48.6
2023-01-11T05:52:58.159Z,48.2
2023-01-11T05:53:59.241Z,48.5
2023-01-11T05:55:00.123Z,48.7
2023-01-11T05:56:01.223Z,48.9
2023-01-11T05:57:02.106Z,48.8
2023-01-11T05:58:03.200Z,48.5
2023-01-11T05:59:04.166Z,48.8
2023-01-11T06:00:05.195Z,48.8
2023-01-11T06:01:06.232Z,48.8
2023-01-11T06:02:07.422Z,49
2023-01-11T06:03:08.248Z,49.1
2023-01-11T06:04:09.170Z,49.2
2023-01-11T06:05:10.199Z,49.1
2023-01-11T06:06:11.174Z,49
2023-01-11T06:07:12.259Z,49.2
2023-01-11T06:08:13.218Z,49.1
2023-01-11T06:09:14.248Z,49.2
2023-01-11T06:10:15.223Z,49
2023-01-11T06:11:16.293Z,48.8
2023-01-11T06:12:17.278Z,48.6
2023-01-11T06:13:18.160Z,48.3
2023-01-11T06:14:19.222Z,48.3
2023-01-11T06:15:20.229Z,48.3
2023-01-11T06:16:21.227Z,48.2
2023-01-11T06:17:22.340Z,48.1
2023-01-11T06:18:23.244Z,48.1
2023-01-11T06:19:24.292Z,48.2
2023-01-11T06:20:25.418Z,48.1
2023-01-11T06:21:26.441Z,47.9
2023-01-11T06:22:27.603Z,47.3
2023-01-11T06:23:28.204Z,48.1
2023-01-11T06:24:29.319Z,47.9
2023-01-11T06:25:30.278Z,48.4
2023-01-11T06:26:31.226Z,48.5
2023-01-11T06:27:32.123Z,48.5
2023-01-11T06:28:33.167Z,48.8
2023-01-11T06:29:34.244Z,49
2023-01-11T06:30:35.237Z,49.1
2023-01-11T06:31:36.147Z,49.4
2023-01-11T06:32:37.322Z,49.3
2023-01-11T06:33:38.362Z,49.3
2023-01-11T06:34:39.261Z,48.5
2023-01-11T06:35:40.238Z,49.1
2023-01-11T06:36:41.187Z,49.3
2023-01-11T06:37:42.244Z,49.6
2023-01-11T06:38:43.217Z,49.6
2023-01-11T06:39:44.319Z,49.6
2023-01-11T06:40:45.283Z,49.6
2023-01-11T06:41:46.260Z,48.6
2023-01-11T06:42:47.280Z,49.2
2023-01-11T06:43:48.219Z,49.4
2023-01-11T06:44:49.221Z,49.4
2023-01-11T06:45:50.295Z,49.5
2023-01-11T06:46:51.234Z,49.5
2023-01-11T06:47:52.500Z,49.5
2023-01-11T06:48:53.441Z,49.3
2023-01-11T06:49:54.340Z,49.2
2023-01-11T06:50:55.227Z,48.6
2023-01-11T06:51:56.732Z,48.7
2023-01-11T06:52:58.402Z,48.6
2023-01-11T06:53:59.359Z,48.7
2023-01-11T06:55:00.284Z,48.8
2023-01-11T06:56:04.242Z,48.8
2023-01-11T06:57:05.309Z,48.8
2023-01-11T06:58:06.215Z,48.6
2023-01-11T06:59:07.244Z,48.8
2023-01-11T07:00:08.379Z,48.7
2023-01-11T07:01:09.936Z,48.6
2023-01-11T07:02:11.260Z,48.7
2023-01-11T07:03:12.219Z,48.8
2023-01-11T07:04:13.343Z,48.8
2023-01-11T07:05:14.149Z,48.7
2023-01-11T07:06:15.242Z,48.8
2023-01-11T07:07:16.225Z,48.7
2023-01-11T07:08:17.274Z,48.7
2023-01-11T07:09:18.258Z,48.6
2023-01-11T07:10:19.170Z,48.3
2023-01-11T07:11:20.322Z,48.4
2023-01-11T07:12:21.405Z,48.4
2023-01-11T07:13:22.444Z,48.3
2023-01-11T07:14:23.438Z,48
2023-01-11T07:15:24.406Z,47.6
2023-01-11T07:16:25.377Z,47.6
2023-01-11T07:17:26.585Z,47.5
2023-01-11T07:18:27.203Z,47.7
2023-01-11T07:19:28.520Z,47.4
2023-01-11T07:20:29.295Z,47.1
2023-01-11T07:21:30.298Z,46.9
2023-01-11T07:22:31.245Z,47
2023-01-11T07:23:32.231Z,47
2023-01-11T07:24:33.287Z,47
2023-01-11T07:25:34.226Z,46.8
2023-01-11T07:26:35.649Z,47.2
2023-01-11T07:27:36.203Z,47
2023-01-11T07:28:37.240Z,47.3
2023-01-11T07:29:38.198Z,47.5
2023-01-11T07:30:56.521Z,47.1
2023-01-11T07:31:40.517Z,47.2
2023-01-11T07:32:41.333Z,47.2
2023-01-11T07:33:42.330Z,46.9
2023-01-11T07:34:43.260Z,46.4
2023-01-11T07:35:44.259Z,46.1
2023-01-11T07:36:45.281Z,45.6
2023-01-11T07:37:46.329Z,45.2
2023-01-11T07:38:47.317Z,45.5
2023-01-11T07:39:48.366Z,45.3
2023-01-11T07:40:49.419Z,45.3
2023-01-11T07:41:50.379Z,45.3
2023-01-11T07:42:51.309Z,45.6
2023-01-11T07:43:52.421Z,45.6
2023-01-11T07:44:53.439Z,45.1
2023-01-11T07:45:54.600Z,44.8
2023-01-11T07:46:55.361Z,44.4
2023-01-11T07:47:56.219Z,44.1
2023-01-11T07:48:58.419Z,44.3
2023-01-11T07:49:59.420Z,44.2
2023-01-11T07:51:00.321Z,43.9
2023-01-11T07:52:01.219Z,44
2023-01-11T07:53:02.303Z,44.2
2023-01-11T07:54:03.567Z,44.5
2023-01-11T07:55:04.503Z,44.7
2023-01-11T07:56:05.484Z,44.7
2023-01-11T07:57:06.253Z,44.4
2023-01-11T07:58:07.228Z,44.3
2023-01-11T07:59:08.320Z,43.9
2023-01-11T08:00:09.322Z,43.7
2023-01-11T08:01:10.261Z,43.5
2023-01-11T08:02:11.281Z,43.7
2023-01-11T08:03:12.565Z,43.7
2023-01-11T08:04:13.504Z,44
2023-01-11T08:05:14.231Z,43.9
2023-01-11T08:06:15.320Z,43.5
2023-01-11T08:07:16.280Z,43.3
2023-01-11T08:08:17.282Z,42.8
2023-01-11T08:09:18.290Z,42.5
2023-01-11T08:10:19.302Z,42.3
2023-01-11T08:11:20.322Z,42.6
2023-01-11T08:12:21.481Z,42.4
2023-01-11T08:13:22.553Z,42
2023-01-11T08:14:23.341Z,41.5
2023-01-11T08:15:24.256Z,40.9
2023-01-11T08:16:25.322Z,40.7
2023-01-11T08:17:26.639Z,40.9
2023-01-11T08:18:27.336Z,40.5
2023-01-11T08:19:28.425Z,40
2023-01-11T08:20:29.260Z,38.9
2023-01-11T08:21:30.280Z,39.1
2023-01-11T08:22:31.307Z,39
2023-01-11T08:23:32.301Z,38.6
2023-01-11T08:24:33.317Z,38.5
2023-01-11T08:25:34.326Z,38.8
2023-01-11T08:26:35.535Z,39.3
2023-01-11T08:27:36.240Z,39.4
2023-01-11T08:28:37.345Z,39
2023-01-11T08:29:38.504Z,39.3
2023-01-11T08:30:39.424Z,39.6
2023-01-11T08:31:40.288Z,39.6
2023-01-11T08:32:41.344Z,39.2
2023-01-11T08:33:42.223Z,39.4
2023-01-11T08:34:43.223Z,39.4
2023-01-11T08:35:44.303Z,39.6
2023-01-11T08:36:45.332Z,39.9
2023-01-11T08:37:46.353Z,40.2
2023-01-11T08:38:47.245Z,40.1
2023-01-11T08:39:48.460Z,40.4
2023-01-11T08:40:49.280Z,40.9
2023-01-11T08:41:50.558Z,41.4
2023-01-11T08:42:51.303Z,41.8
2023-01-11T08:43:52.341Z,41.5
2023-01-11T08:44:53.326Z,41.5
2023-01-11T08:45:54.361Z,41.6
2023-01-11T08:46:55.367Z,41.5
2023-01-11T08:47:56.429Z,40.8
2023-01-11T08:48:57.344Z,40.7
2023-01-11T08:49:58.381Z,40.2
2023-01-11T08:50:59.460Z,39.4
2023-01-11T08:52:00.313Z,40
2023-01-11T08:53:01.299Z,40
2023-01-11T08:54:02.303Z,39.8
2023-01-11T08:55:03.382Z,40.1
2023-01-11T08:56:04.307Z,39.9
2023-01-11T08:57:05.538Z,39.8
2023-01-11T08:58:06.362Z,39.7
2023-01-11T08:59:07.327Z,39.7
2023-01-11T09:00:08.360Z,40.4
2023-01-11T09:01:09.307Z,40.3
2023-01-11T09:02:10.323Z,40.4
2023-01-11T09:03:11.406Z,40.4
2023-01-11T09:04:24.051Z,40.4
2023-01-11T09:05:17.469Z,41
2023-01-11T09:06:16.422Z,41.5
2023-01-11T09:07:17.324Z,41.6
2023-01-11T09:08:18.352Z,41.2
2023-01-11T09:09:19.320Z,41.1
2023-01-11T09:10:20.443Z,41.3
2023-01-11T09:11:21.403Z,41.3
2023-01-11T09:12:22.323Z,41.5
2023-01-11T09:13:23.286Z,41
2023-01-11T09:14:24.427Z,40.3
2023-01-11T09:15:25.545Z,40
2023-01-11T09:16:26.747Z,40.1
2023-01-11T09:17:28.420Z,40.1
2023-01-11T09:18:29.322Z,40.5
2023-01-11T09:19:30.262Z,40.4
2023-01-11T09:20:31.366Z,40.5
2023-01-11T09:21:32.280Z,40.7
2023-01-11T09:22:33.380Z,40.7
2023-01-11T09:23:34.229Z,40.7
2023-01-11T09:24:35.318Z,40.7
2023-01-11T09:25:36.468Z,40.8
2023-01-11T09:26:37.312Z,40.8
2023-01-11T09:27:38.230Z,40.9
2023-01-11T09:28:39.307Z,40.8
2023-01-11T09:29:40.352Z,40.8
2023-01-11T09:30:41.540Z,41
2023-01-11T09:31:42.440Z,40.9
2023-01-11T09:32:43.366Z,40.9
2023-01-11T09:33:44.393Z,41.1
2023-01-11T09:34:46.778Z,40.7
2023-01-11T09:35:46.456Z,40.7
2023-01-11T09:36:47.280Z,40.6
2023-01-11T09:37:48.359Z,40.9
2023-01-11T09:38:49.383Z,41.5
2023-01-11T09:39:50.361Z,41.1
2023-01-11T09:40:51.461Z,40.9
2023-01-11T09:41:52.365Z,41.2
2023-01-11T09:42:53.321Z,41
2023-01-11T09:43:54.340Z,40.6
2023-01-11T09:44:55.387Z,40.5
2023-01-11T09:45:57.420Z,40.3
2023-01-11T09:46:58.580Z,40.6
2023-01-11T09:47:59.381Z,40.7
2023-01-11T09:49:00.447Z,40.5
2023-01-11T09:50:01.338Z,40.8
2023-01-11T09:51:03.330Z,41
2023-01-11T09:52:04.600Z,41
2023-01-11T09:53:05.422Z,40.9
2023-01-11T09:54:06.523Z,40.9
2023-01-11T09:55:07.346Z,40.8
2023-01-11T09:56:08.278Z,41.3
2023-01-11T09:57:09.312Z,41.2
2023-01-11T09:58:10.367Z,41
2023-01-11T09:59:11.365Z,41
2023-01-11T10:00:12.272Z,40.9
2023-01-11T10:01:13.316Z,41.2
2023-01-11T10:02:17.081Z,41.1
2023-01-11T10:03:18.361Z,40.9
2023-01-11T10:04:19.333Z,41.2
2023-01-11T10:05:20.201Z,41.4
2023-01-11T10:06:23.164Z,42.1
2023-01-11T10:07:22.342Z,41.4
2023-01-11T10:18:24.494Z,40.1
2023-01-11T10:18:24.502Z,40
2023-01-11T10:18:24.717Z,40.4
2023-01-11T10:18:34.855Z,39.6
2023-01-11T10:18:53.292Z,39.2
2023-01-11T10:19:40.165Z,39.2
2023-01-11T10:20:36.385Z,39.2
2023-01-11T10:21:37.403Z,39.5
2023-01-11T10:22:38.241Z,39.8
2023-01-11T10:23:39.293Z,39.5
2023-01-11T10:24:40.389Z,39.3
2023-01-11T10:25:41.353Z,39.3
2023-01-11T10:26:42.412Z,39.5
2023-01-11T10:27:43.369Z,39
2023-01-11T10:28:44.273Z,39.7
2023-01-11T10:29:45.643Z,40.2
2023-01-11T10:30:46.353Z,40.8
2023-01-11T10:31:47.469Z,41.3
2023-01-11T10:32:48.344Z,41.4
2023-01-11T10:33:49.283Z,41.1
2023-01-11T10:34:50.335Z,40.6
2023-01-11T10:35:51.271Z,40.1
2023-01-11T10:36:52.268Z,39.4
2023-01-11T10:37:53.433Z,39.5
2023-01-11T10:38:54.385Z,39.7
2023-01-11T10:39:55.477Z,40.1
2023-01-11T10:40:56.485Z,39.9
2023-01-11T10:41:57.291Z,39.9
2023-01-11T10:42:58.441Z,40.2
2023-01-11T10:43:59.526Z,40.4
2023-01-11T10:45:00.294Z,39.7
2023-01-11T10:46:01.520Z,39.2
2023-01-11T10:47:02.336Z,39.4
2023-01-11T10:48:03.501Z,39.5
2023-01-11T10:49:04.848Z,39.4
2023-01-11T10:50:06.804Z,38.6
2023-01-11T10:51:07.513Z,38.6
2023-01-11T10:52:08.284Z,38.6
2023-01-11T10:53:09.434Z,39.7
2023-01-11T10:54:10.415Z,40.4
2023-01-11T10:55:11.305Z,39.7
2023-01-11T10:56:12.384Z,38.6
2023-01-11T10:57:13.463Z,37.9
2023-01-11T10:58:14.547Z,39.3
2023-01-11T10:59:15.482Z,39.5
2023-01-11T11:00:17.222Z,39.7
2023-01-11T11:01:18.391Z,40.3
2023-01-11T11:02:21.386Z,40.5
2023-01-11T11:03:20.606Z,40.6
2023-01-11T11:04:21.385Z,40.4
2023-01-11T11:05:22.333Z,39.5
2023-01-11T11:06:24.262Z,39.3
2023-01-11T11:07:25.441Z,38.7
2023-01-11T11:08:26.951Z,38.7
2023-01-11T11:09:28.348Z,38.4
2023-01-11T11:10:29.435Z,38.2
2023-01-11T11:11:30.344Z,38.7
2023-01-11T11:12:31.347Z,39.2
2023-01-11T11:13:32.441Z,39.8
2023-01-11T11:14:33.392Z,40.4
2023-01-11T11:15:34.491Z,39.8
2023-01-11T11:16:35.438Z,39.2
2023-01-11T11:17:36.342Z,38.6
2023-01-11T11:18:38.260Z,38.3
2023-01-11T11:19:40.665Z,38.1
2023-01-11T11:20:40.392Z,37.3
2023-01-11T11:21:41.383Z,37.2
2023-01-11T11:22:42.350Z,37.1
2023-01-11T11:23:43.342Z,37.5
2023-01-11T11:24:44.328Z,37.4
2023-01-11T11:25:45.381Z,37
2023-01-11T11:26:46.432Z,37.1
2023-01-11T11:27:47.380Z,36.8
2023-01-11T11:28:48.379Z,36.9
2023-01-11T11:29:49.421Z,36.5
2023-01-11T11:30:50.479Z,36.7
2023-01-11T11:31:51.661Z,36.7
2023-01-11T11:32:52.342Z,36.3
2023-01-11T11:33:53.302Z,35.8
2023-01-11T11:34:54.300Z,35.9
2023-01-11T11:35:55.492Z,35.8
2023-01-11T11:36:56.369Z,35.9
2023-01-11T11:37:57.363Z,35.1
2023-01-11T11:38:58.342Z,34.8
2023-01-11T11:39:59.664Z,34.9
2023-01-11T11:41:00.463Z,35.1
2023-01-11T11:42:01.445Z,34.7
2023-01-11T11:43:02.402Z,35.1
2023-01-11T11:44:03.419Z,35.2
2023-01-11T11:45:04.343Z,35.1
2023-01-11T11:46:05.521Z,34.9
2023-01-11T11:47:06.580Z,35.5
2023-01-11T11:48:07.448Z,35.6
2023-01-11T11:49:08.481Z,35.6
2023-01-11T11:50:09.414Z,35.1
2023-01-11T11:51:10.621Z,35
2023-01-11T11:52:12.382Z,34.8
2023-01-11T11:53:13.381Z,34.5
2023-01-11T11:54:14.343Z,34.8
2023-01-11T11:55:15.459Z,34.8
2023-01-11T11:56:16.301Z,34.8
2023-01-11T11:57:17.365Z,34.8
2023-01-11T11:58:18.420Z,35
2023-01-11T11:59:19.387Z,35
2023-01-11T12:00:20.435Z,34.9
2023-01-11T12:01:21.522Z,34.9
2023-01-11T12:02:23.050Z,35.3
2023-01-11T12:03:26.302Z,35.7
2023-01-11T12:04:25.682Z,35.8
2023-01-11T12:05:27.062Z,36
2023-01-11T12:06:28.404Z,36.5
2023-01-11T12:07:29.413Z,36.6
2023-01-11T12:08:30.394Z,36.1
2023-01-11T12:09:31.414Z,36.4
2023-01-11T12:10:32.399Z,36.8
2023-01-11T12:11:33.441Z,36.8
2023-01-11T12:12:34.392Z,36.9
2023-01-11T12:13:35.391Z,37.1
2023-01-11T12:14:36.480Z,36.5
2023-01-11T12:15:37.539Z,37.3
2023-01-11T12:16:38.624Z,37.4
2023-01-11T12:17:39.406Z,37.6
2023-01-11T12:18:40.481Z,37.7
2023-01-11T12:19:41.380Z,37.9
2023-01-11T12:20:42.375Z,37.9
2023-01-11T12:21:43.401Z,38.1
2023-01-11T12:22:44.479Z,37.9
2023-01-11T12:23:45.558Z,37.9
2023-01-11T12:24:46.601Z,38
2023-01-11T12:25:47.483Z,37.9
2023-01-11T12:26:48.470Z,37.8
2023-01-11T12:27:49.385Z,37.4
2023-01-11T12:28:50.447Z,37.6
2023-01-11T12:29:51.642Z,37.8
2023-01-11T12:30:52.455Z,38
2023-01-11T12:31:53.321Z,38.1
2023-01-11T12:32:54.353Z,38.3
2023-01-11T12:33:55.230Z,38.4
2023-01-11T12:34:56.481Z,38.9
2023-01-11T12:35:57.231Z,38.6
2023-01-11T12:36:58.375Z,38.4
2023-01-11T12:37:59.552Z,38.6
2023-01-11T12:39:00.361Z,38.7
2023-01-11T12:40:01.536Z,38.2
2023-01-11T12:41:02.424Z,38.4
2023-01-11T12:42:03.386Z,38.4
2023-01-11T12:43:04.555Z,38.2
2023-01-11T12:44:05.522Z,37.9
2023-01-11T12:45:06.713Z,37.7
2023-01-11T12:46:08.018Z,37.9
2023-01-11T12:47:09.876Z,38.2
2023-01-11T12:48:11.562Z,38.8
2023-01-11T12:49:12.764Z,39.1
2023-01-11T12:50:13.432Z,39.3
2023-01-11T12:51:14.582Z,39
2023-01-11T12:52:15.426Z,39.3
2023-01-11T12:53:16.382Z,39.4
2023-01-11T12:54:17.400Z,39.6
2023-01-11T12:55:18.345Z,39.7
2023-01-11T12:56:19.419Z,40
2023-01-11T12:57:20.342Z,39.8
2023-01-11T12:58:21.590Z,39.9
2023-01-11T12:59:22.644Z,39.7
2023-01-11T13:00:23.401Z,39.7
2023-01-11T13:01:24.379Z,39.9
2023-01-11T13:02:25.510Z,39.8
2023-01-11T13:03:27.102Z,39.9
2023-01-11T13:04:28.488Z,40
2023-01-11T13:05:29.399Z,40
2023-01-11T13:06:30.604Z,40
2023-01-11T13:07:31.620Z,40.2
2023-01-11T13:08:32.519Z,40.2
2023-01-11T13:09:33.486Z,40.2
2023-01-11T13:10:34.417Z,40.1
2023-01-11T13:11:35.589Z,40.1
2023-01-11T13:12:36.338Z,40
2023-01-11T13:13:37.403Z,40.1
2023-01-11T13:14:38.326Z,40.1
2023-01-11T13:15:39.394Z,39.9
2023-01-11T13:16:40.427Z,40.2
2023-01-11T13:17:41.453Z,40.6
2023-01-11T13:18:42.338Z,40.6
2023-01-11T13:19:43.388Z,40.4
2023-01-11T13:20:59.775Z,40.4
2023-01-11T13:21:45.509Z,40.4
2023-01-11T13:22:46.449Z,40.2
2023-01-11T13:23:47.381Z,40.1
2023-01-11T13:24:48.459Z,39.9
2023-01-11T13:25:49.413Z,39.8
2023-01-11T13:26:50.942Z,39.8
2023-01-11T13:27:51.459Z,40
2023-01-11T13:28:52.431Z,39.9
2023-01-11T13:29:53.438Z,40.2
2023-01-11T13:30:54.507Z,40
2023-01-11T13:31:55.669Z,40.1
2023-01-11T13:32:56.626Z,40.2
2023-01-11T13:33:57.681Z,40.2
2023-01-11T13:34:58.560Z,39.9
2023-01-11T13:35:59.441Z,39.8
2023-01-11T13:37:00.503Z,39.8
2023-01-11T13:38:01.366Z,39.6
2023-01-11T13:39:02.440Z,39.7
2023-01-11T13:40:03.439Z,39.8
2023-01-11T13:41:04.413Z,40
2023-01-11T13:42:05.563Z,40.2
2023-01-11T13:43:06.529Z,40.2
2023-01-11T13:44:07.483Z,40.2
2023-01-11T13:45:08.723Z,40.5
2023-01-11T13:46:09.441Z,40.8